Time;durP1;ratioP1;P1;durP2;ratioP2;P2;SDS_P1;SDS_P2;PMS_P1;PMS_P2;Temp;Humidity;BMP_temperature;BMP_pressure;BME280_temperature;BME280_humidity;BME280_pressure;Samples;Min_cycle;Max_cycle;Signal;HPM_P1;HPM_P2
2024/04/15 00:01:09;;;;;;;1.50;1.00;;;12.80;98.20;;;;;;5292811;26;20603;-79
2024/04/15 00:03:34;;;;;;;1.50;1.00;;;12.80;98.20;;;;;;5304639;26;20752;-79
2024/04/15 00:06:03;;;;;;;1.50;1.00;;;12.80;98.20;;;;;;5294210;26;20523;-79
2024/04/15 00:08:29;;;;;;;1.47;1.00;;;12.80;98.20;;;;;;5304441;26;20245;-78
2024/04/15 00:10:57;;;;;;;1.50;1.10;;;12.80;98.20;;;;;;5299400;26;20543;-78
2024/04/15 00:13:26;;;;;;;1.50;1.00;;;12.80;98.20;;;;;;5308710;26;21437;-78
2024/04/15 00:15:58;;;;;;;1.50;1.00;;;12.80;98.20;;;;;;5298490;26;20588;-79
2024/04/15 00:18:27;;;;;;;1.50;1.00;;;12.70;98.20;;;;;;5304236;26;20585;-79
2024/04/15 00:21:02;;;;;;;1.50;1.00;;;12.80;98.20;;;;;;5291756;26;20471;-79
2024/04/15 00:23:28;;;;;;;1.50;1.10;;;12.70;98.20;;;;;;5305583;26;20593;-79
2024/04/15 00:25:58;;;;;;;1.50;1.00;;;12.70;98.20;;;;;;5291680;26;20475;-79
2024/04/15 00:28:30;;;;;;;1.50;1.00;;;12.70;98.20;;;;;;5313579;26;20483;-79
2024/04/15 00:31:05;;;;;;;1.43;1.00;;;12.70;98.20;;;;;;5293487;26;20483;-80
2024/04/15 00:33:31;;;;;;;1.50;1.00;;;12.70;98.20;;;;;;5293562;26;20494;-79
2024/04/15 00:36:02;;;;;;;1.50;1.07;;;12.70;98.20;;;;;;5293343;26;20527;-78
2024/04/15 00:38:28;;;;;;;1.50;1.00;;;12.60;98.20;;;;;;5307219;26;20724;-79
2024/04/15 00:40:56;;;;;;;1.50;1.00;;;12.60;98.20;;;;;;5293109;26;20514;-80
2024/04/15 00:43:22;;;;;;;1.50;1.00;;;12.60;98.20;;;;;;5305802;26;20775;-79
2024/04/15 00:45:53;;;;;;;1.50;1.00;;;12.60;98.20;;;;;;5294334;26;20468;-80
2024/04/15 00:48:25;;;;;;;1.50;1.00;;;12.60;98.20;;;;;;5305871;26;20267;-79
2024/04/15 00:50:54;;;;;;;1.50;1.00;;;12.60;98.20;;;;;;5293716;26;20564;-79
2024/04/15 00:53:22;;;;;;;1.50;1.00;;;12.60;98.20;;;;;;5309197;26;20512;-79
2024/04/15 00:55:54;;;;;;;1.50;1.00;;;12.50;98.20;;;;;;5295221;26;20535;-79
2024/04/15 00:58:22;;;;;;;1.50;1.00;;;12.50;98.20;;;;;;5317839;26;20538;-79
2024/04/15 01:00:55;;;;;;;1.50;1.10;;;12.50;98.20;;;;;;5297327;26;20906;-82
2024/04/15 01:03:21;;;;;;;1.47;1.00;;;12.50;98.20;;;;;;5308761;26;20490;-82
2024/04/15 01:05:53;;;;;;;1.50;1.00;;;12.50;98.20;;;;;;5304870;26;20472;-80
2024/04/15 01:08:19;;;;;;;1.50;1.00;;;12.50;98.20;;;;;;5287960;26;20592;-80
2024/04/15 01:10:51;;;;;;;1.40;1.00;;;12.50;98.20;;;;;;5302954;26;20483;-81
2024/04/15 01:13:16;;;;;;;1.50;1.00;;;12.50;98.20;;;;;;5311492;26;20299;-80
2024/04/15 01:15:45;;;;;;;1.50;1.00;;;12.40;98.20;;;;;;5305557;26;20476;-80
2024/04/15 01:18:13;;;;;;;1.50;1.10;;;12.40;98.20;;;;;;5307520;26;20287;-80
2024/04/15 01:20:42;;;;;;;1.50;1.00;;;12.40;98.20;;;;;;5305679;26;20463;-80
2024/04/15 01:23:13;;;;;;;1.50;1.10;;;12.30;98.20;;;;;;5299747;26;20518;-80
2024/04/15 01:25:45;;;;;;;1.47;0.93;;;12.20;98.20;;;;;;5299812;26;20470;-80
2024/04/15 01:28:12;;;;;;;1.50;1.10;;;12.10;98.20;;;;;;5300865;26;20496;-80
2024/04/15 01:30:40;;;;;;;1.50;1.00;;;12.00;98.20;;;;;;5296681;26;20483;-80
2024/04/15 01:33:06;;;;;;;1.50;1.03;;;12.00;98.20;;;;;;5307250;26;21098;-80
2024/04/15 01:35:35;;;;;;;1.50;1.10;;;11.90;98.20;;;;;;5305008;26;20471;-80
2024/04/15 01:38:02;;;;;;;1.50;1.10;;;11.90;98.20;;;;;;5308515;26;20594;-81
2024/04/15 01:40:30;;;;;;;1.50;1.10;;;11.90;98.20;;;;;;5303354;26;20512;-81
2024/04/15 01:42:59;;;;;;;1.50;1.10;;;11.80;98.20;;;;;;5300092;26;20599;-81
2024/04/15 01:45:27;;;;;;;1.50;1.00;;;11.80;98.20;;;;;;5303870;26;20531;-80
2024/04/15 01:47:53;;;;;;;1.50;1.00;;;11.70;98.20;;;;;;5281830;26;20499;-81
2024/04/15 01:50:22;;;;;;;1.50;1.00;;;11.60;98.20;;;;;;5304931;26;20506;-81
2024/04/15 01:52:48;;;;;;;1.50;1.10;;;11.60;98.20;;;;;;5302814;26;20499;-81
2024/04/15 01:55:16;;;;;;;1.50;1.10;;;11.50;98.20;;;;;;5309121;26;20521;-81
2024/04/15 01:57:42;;;;;;;1.50;1.00;;;11.50;98.20;;;;;;5312410;26;20724;-81
2024/04/15 02:00:15;;;;;;;1.50;1.00;;;11.50;98.20;;;;;;5308588;26;20471;-81
2024/04/15 02:02:40;;;;;;;1.50;1.00;;;11.40;98.20;;;;;;5297026;26;20303;-80
2024/04/15 02:05:09;;;;;;;1.50;1.10;;;11.40;98.20;;;;;;5307480;26;20482;-81
2024/04/15 02:07:35;;;;;;;1.50;1.10;;;11.40;98.20;;;;;;5298572;26;20386;-81
2024/04/15 02:10:03;;;;;;;1.50;1.00;;;11.30;98.20;;;;;;5308727;26;20479;-81
2024/04/15 02:12:29;;;;;;;1.50;1.07;;;11.30;98.20;;;;;;5305807;26;20399;-81
2024/04/15 02:14:58;;;;;;;1.50;1.10;;;11.40;98.20;;;;;;5312231;26;20523;-81
2024/04/15 02:17:26;;;;;;;1.50;1.10;;;11.40;98.20;;;;;;5303167;26;21381;-81
2024/04/15 02:19:59;;;;;;;1.50;1.00;;;11.40;98.20;;;;;;5308823;26;20480;-81
2024/04/15 02:22:25;;;;;;;1.50;1.03;;;11.40;98.20;;;;;;5307582;26;20545;-81
2024/04/15 02:24:53;;;;;;;1.50;1.10;;;11.40;98.20;;;;;;5314234;26;20475;-81
2024/04/15 02:27:19;;;;;;;1.50;1.10;;;11.40;98.20;;;;;;5312181;26;20266;-81
2024/04/15 02:29:48;;;;;;;1.50;1.10;;;11.40;98.20;;;;;;5308980;26;20982;-81
2024/04/15 02:32:14;;;;;;;1.50;1.10;;;11.40;98.20;;;;;;5303883;26;20503;-81
2024/04/15 02:34:47;;;;;;;1.50;1.10;;;11.40;98.20;;;;;;5310185;26;20531;-81
2024/04/15 02:37:13;;;;;;;1.50;1.10;;;11.40;98.20;;;;;;5301428;26;20652;-81
2024/04/15 02:39:41;;;;;;;1.50;1.20;;;11.30;98.20;;;;;;5306906;26;20539;-81
2024/04/15 02:42:07;;;;;;;1.50;1.10;;;11.30;98.20;;;;;;5303826;26;20498;-81
2024/04/15 02:44:36;;;;;;;1.50;1.10;;;11.30;98.20;;;;;;5318053;26;20543;-81
2024/04/15 02:47:02;;;;;;;1.50;1.10;;;11.20;98.20;;;;;;5309815;26;20263;-81
2024/04/15 02:49:31;;;;;;;1.50;1.00;;;11.20;98.20;;;;;;5308827;26;20515;-81
2024/04/15 02:51:59;;;;;;;1.50;1.00;;;11.20;98.20;;;;;;5301250;26;20378;-82
2024/04/15 02:54:28;;;;;;;1.50;1.00;;;11.10;98.20;;;;;;5309665;26;21203;-81
2024/04/15 02:56:53;;;;;;;1.50;1.10;;;11.10;98.20;;;;;;5302861;26;20637;-82
2024/04/15 02:59:25;;;;;;;1.50;1.10;;;11.10;98.20;;;;;;5308998;26;21083;-82
2024/04/15 03:01:51;;;;;;;1.50;1.20;;;11.00;98.20;;;;;;5291921;26;20361;-82
2024/04/15 03:04:25;;;;;;;1.50;1.10;;;11.00;98.20;;;;;;5311749;26;20471;-82
2024/04/15 03:06:51;;;;;;;1.50;1.10;;;11.00;98.20;;;;;;5308780;26;20317;-82
2024/04/15 03:09:30;;;;;;;1.50;1.10;;;11.00;98.20;;;;;;5309941;26;20531;-82
2024/04/15 03:11:56;;;;;;;1.50;1.00;;;10.90;98.20;;;;;;5295405;26;20498;-82
2024/04/15 03:14:25;;;;;;;1.50;1.10;;;10.90;98.20;;;;;;5352978;21;20584;-80
2024/04/15 03:16:50;;;;;;;1.50;1.10;;;10.80;98.20;;;;;;5321003;26;20351;-80
2024/04/15 03:19:19;;;;;;;1.50;1.10;;;10.80;98.20;;;;;;5334904;26;20589;-80
2024/04/15 03:21:45;;;;;;;1.50;1.10;;;10.80;98.20;;;;;;5330466;26;20638;-80
2024/04/15 03:24:13;;;;;;;1.50;1.20;;;10.70;98.20;;;;;;5339348;26;21169;-80
2024/04/15 03:26:43;;;;;;;1.50;1.20;;;10.70;98.20;;;;;;5300154;26;20291;-80
2024/04/15 03:29:11;;;;;;;1.50;1.00;;;10.70;98.20;;;;;;5307628;26;21069;-80
2024/04/15 03:31:37;;;;;;;1.50;1.10;;;10.70;98.20;;;;;;5295454;26;20781;-81
2024/04/15 03:34:05;;;;;;;1.50;1.10;;;10.70;98.20;;;;;;5320088;26;20583;-80
2024/04/15 03:36:31;;;;;;;1.50;1.10;;;10.60;98.20;;;;;;5302817;26;20275;-80
2024/04/15 03:38:59;;;;;;;1.50;1.10;;;10.60;98.20;;;;;;5308649;26;21007;-80
2024/04/15 03:41:28;;;;;;;1.50;1.10;;;10.50;98.20;;;;;;5297068;26;20917;-80
2024/04/15 03:43:59;;;;;;;1.50;1.10;;;10.50;98.20;;;;;;5316850;26;20547;-81
2024/04/15 03:46:25;;;;;;;1.50;1.10;;;10.50;98.20;;;;;;5293730;26;20578;-81
2024/04/15 03:48:53;;;;;;;1.50;1.10;;;10.40;98.20;;;;;;5311463;26;20981;-80
2024/04/15 03:51:19;;;;;;;1.50;1.20;;;10.40;98.20;;;;;;5293755;26;20399;-81
2024/04/15 03:53:49;;;;;;;1.50;1.20;;;10.40;98.20;;;;;;5306495;26;20467;-81
2024/04/15 03:56:14;;;;;;;1.50;1.10;;;10.30;98.20;;;;;;5301115;26;20303;-80
2024/04/15 03:58:43;;;;;;;1.50;1.10;;;10.30;98.20;;;;;;5309156;26;20567;-80
2024/04/15 04:01:11;;;;;;;1.50;1.20;;;10.30;98.20;;;;;;5297100;26;20268;-80
2024/04/15 04:03:40;;;;;;;1.50;1.10;;;10.30;98.20;;;;;;5313033;26;20520;-81
2024/04/15 04:06:06;;;;;;;1.50;1.20;;;10.20;98.20;;;;;;5297745;26;20566;-81
2024/04/15 04:08:34;;;;;;;1.50;1.20;;;10.20;98.20;;;;;;5308257;26;20518;-80
2024/04/15 04:11:05;;;;;;;1.50;1.20;;;10.20;98.20;;;;;;5294745;26;21084;-80
2024/04/15 04:13:35;;;;;;;1.50;1.10;;;10.10;98.20;;;;;;5315140;26;20471;-81
2024/04/15 04:16:00;;;;;;;1.50;1.10;;;10.10;98.20;;;;;;5296532;26;21081;-80
2024/04/15 04:18:32;;;;;;;1.50;1.10;;;10.00;98.20;;;;;;5310057;26;20479;-80
2024/04/15 04:20:58;;;;;;;1.50;1.10;;;10.00;98.20;;;;;;5304311;26;20311;-80
2024/04/15 04:23:26;;;;;;;1.50;1.20;;;9.90;98.20;;;;;;5314609;26;20491;-80
2024/04/15 04:25:52;;;;;;;1.50;1.10;;;9.90;98.20;;;;;;5294726;26;20363;-80
2024/04/15 04:28:20;;;;;;;1.50;1.20;;;9.90;98.20;;;;;;5306845;26;20483;-81
2024/04/15 04:30:46;;;;;;;1.50;1.20;;;9.90;98.20;;;;;;5300515;26;20232;-81
2024/04/15 04:33:14;;;;;;;1.50;1.20;;;9.80;98.20;;;;;;5313300;26;20916;-80
2024/04/15 04:35:45;;;;;;;1.50;1.20;;;9.80;98.20;;;;;;5303637;26;20236;-80
2024/04/15 04:38:11;;;;;;;1.50;1.30;;;9.80;98.20;;;;;;5275515;26;20534;-80
2024/04/15 04:40:40;;;;;;;1.50;1.10;;;9.70;98.20;;;;;;5301408;26;20494;-79
2024/04/15 04:43:06;;;;;;;1.50;1.20;;;9.70;98.20;;;;;;5298688;26;20701;-80
2024/04/15 04:45:34;;;;;;;1.50;1.10;;;9.60;98.20;;;;;;5306750;26;20468;-80
2024/04/15 04:48:00;;;;;;;1.50;1.10;;;9.60;98.20;;;;;;5303014;26;20264;-80
2024/04/15 04:50:28;;;;;;;1.50;1.10;;;9.50;98.20;;;;;;5305269;26;20584;-81
2024/04/15 04:53:00;;;;;;;1.50;1.10;;;9.50;98.20;;;;;;5320362;26;20497;-81
2024/04/15 04:55:29;;;;;;;1.50;1.10;;;9.50;98.20;;;;;;5298617;26;20941;-80
2024/04/15 04:57:54;;;;;;;1.50;1.20;;;9.50;98.20;;;;;;5305658;26;20634;-81
2024/04/15 05:00:23;;;;;;;1.50;1.20;;;9.50;98.20;;;;;;5302910;26;20614;-81
2024/04/15 05:02:49;;;;;;;1.50;1.10;;;9.50;98.20;;;;;;5319645;26;20395;-81
2024/04/15 05:05:17;;;;;;;1.50;1.10;;;9.50;98.20;;;;;;5300385;26;20614;-81
2024/04/15 05:07:43;;;;;;;1.50;1.13;;;9.40;98.20;;;;;;5301497;26;20897;-81
2024/04/15 05:10:15;;;;;;;1.50;1.20;;;9.40;98.20;;;;;;5303125;26;20463;-80
2024/04/15 05:12:41;;;;;;;1.50;1.10;;;9.40;98.20;;;;;;5298003;26;20499;-81
2024/04/15 05:15:10;;;;;;;1.50;1.10;;;9.40;98.20;;;;;;5302590;26;20783;-80
2024/04/15 05:17:36;;;;;;;1.50;1.20;;;9.40;98.20;;;;;;5312073;26;20681;-80
2024/04/15 05:20:04;;;;;;;1.50;1.10;;;9.50;98.20;;;;;;5301963;26;20583;-82
2024/04/15 05:22:54;;;;;;;1.50;1.10;;;9.50;98.20;;;;;;5304969;26;20367;-82
2024/04/15 05:25:22;;;;;;;1.50;1.10;;;9.50;98.20;;;;;;5314196;26;20541;-82
2024/04/15 05:27:50;;;;;;;1.50;1.10;;;9.50;98.20;;;;;;5315502;26;20499;-82
2024/04/15 05:30:16;;;;;;;1.50;1.10;;;9.50;98.20;;;;;;5297259;26;20536;-81
2024/04/15 05:32:45;;;;;;;1.50;1.03;;;9.50;98.20;;;;;;5301603;26;20502;-81
2024/04/15 05:35:11;;;;;;;1.50;1.10;;;9.60;98.20;;;;;;5301838;26;21141;-81
2024/04/15 05:37:39;;;;;;;1.50;1.10;;;9.60;98.20;;;;;;5313271;26;20501;-82
2024/04/15 05:40:06;;;;;;;1.50;1.10;;;9.70;98.20;;;;;;5301590;26;20244;-82
2024/04/15 05:42:37;;;;;;;1.50;1.27;;;9.80;98.20;;;;;;5314414;26;20546;-81
2024/04/15 05:45:04;;;;;;;1.50;1.10;;;9.80;98.20;;;;;;5308342;26;20560;-81
2024/04/15 05:47:33;;;;;;;1.50;1.10;;;9.90;98.20;;;;;;5294659;26;21145;-82
2024/04/15 05:49:59;;;;;;;1.50;1.10;;;10.00;98.20;;;;;;5297537;26;20583;-79
2024/04/15 05:52:27;;;;;;;1.50;1.20;;;10.10;98.20;;;;;;5302204;26;20919;-77
2024/04/15 05:54:53;;;;;;;1.50;1.10;;;10.10;98.20;;;;;;5299239;26;20427;-78
2024/04/15 05:57:22;;;;;;;1.50;1.10;;;10.10;98.20;;;;;;5297558;26;20497;-79
2024/04/15 05:59:50;;;;;;;1.50;1.10;;;10.20;98.20;;;;;;5296647;26;20256;-80
2024/04/15 06:02:18;;;;;;;1.50;1.20;;;10.20;98.20;;;;;;5294438;26;21095;-78
2024/04/15 06:04:44;;;;;;;1.50;1.10;;;10.30;98.20;;;;;;5301488;26;20919;-78
2024/04/15 06:07:13;;;;;;;1.50;1.10;;;10.40;98.20;;;;;;5285389;26;20603;-79
2024/04/15 06:09:40;;;;;;;1.50;1.10;;;10.50;98.20;;;;;;5301663;26;20648;-79
2024/04/15 06:12:10;;;;;;;1.50;1.10;;;10.50;98.20;;;;;;5294994;26;21125;-79
2024/04/15 06:14:35;;;;;;;1.50;1.10;;;10.60;98.20;;;;;;5298206;26;20543;-79
2024/04/15 06:17:07;;;;;;;1.50;1.10;;;10.60;98.20;;;;;;5290386;26;21014;-79
2024/04/15 06:19:33;;;;;;;1.50;1.10;;;10.60;98.20;;;;;;5291916;26;20486;-78
2024/04/15 06:22:02;;;;;;;1.50;1.17;;;10.60;98.20;;;;;;5297013;26;20579;-78
2024/04/15 06:24:30;;;;;;;1.50;1.10;;;10.50;98.20;;;;;;5300081;26;20590;-79
2024/04/15 06:27:00;;;;;;;1.50;1.20;;;10.60;98.20;;;;;;5293404;26;20554;-79
2024/04/15 06:29:25;;;;;;;1.50;1.00;;;10.50;98.20;;;;;;5301141;26;20588;-79
2024/04/15 06:31:54;;;;;;;1.50;1.20;;;10.50;98.20;;;;;;5290561;26;20622;-78
2024/04/15 06:34:24;;;;;;;1.50;1.10;;;10.50;98.20;;;;;;5300392;26;20326;-79
2024/04/15 06:36:53;;;;;;;1.50;1.10;;;10.50;98.20;;;;;;5287939;26;20603;-79
2024/04/15 06:39:19;;;;;;;1.50;1.10;;;10.50;98.20;;;;;;5303759;26;20637;-79
2024/04/15 06:41:47;;;;;;;1.50;1.00;;;10.50;98.20;;;;;;5291506;26;20912;-79
2024/04/15 06:44:13;;;;;;;1.50;1.10;;;10.60;98.20;;;;;;5304494;26;20248;-78
2024/04/15 06:46:42;;;;;;;1.50;1.00;;;10.60;98.20;;;;;;5286471;26;20626;-79
2024/04/15 06:49:08;;;;;;;1.50;1.20;;;10.70;98.20;;;;;;5302423;26;20837;-79
2024/04/15 06:51:40;;;;;;;1.50;1.10;;;10.80;98.20;;;;;;5287899;26;20515;-79
2024/04/15 06:54:07;;;;;;;1.50;1.13;;;10.90;98.20;;;;;;5305812;26;20746;-78
2024/04/15 06:56:35;;;;;;;1.50;1.10;;;11.00;98.20;;;;;;5291799;26;20502;-79
2024/04/15 06:59:01;;;;;;;1.50;1.10;;;11.10;98.20;;;;;;5298996;26;20475;-78
2024/04/15 07:01:30;;;;;;;1.50;1.10;;;11.20;98.20;;;;;;5288312;26;20509;-79
2024/04/15 07:03:56;;;;;;;1.50;1.10;;;11.20;98.20;;;;;;5305702;26;20642;-79
2024/04/15 07:06:25;;;;;;;1.50;1.10;;;11.30;98.20;;;;;;5292934;26;20669;-77
2024/04/15 07:08:53;;;;;;;1.50;1.07;;;11.30;98.20;;;;;;5300876;26;20483;-78
2024/04/15 07:11:22;;;;;;;1.50;1.13;;;11.30;98.20;;;;;;5291092;26;20853;-78
2024/04/15 07:13:47;;;;;;;1.50;1.10;;;11.40;98.20;;;;;;5303469;26;21137;-78
2024/04/15 07:16:16;;;;;;;1.50;1.10;;;11.40;98.20;;;;;;5289862;26;20508;-79
2024/04/15 07:18:43;;;;;;;1.50;1.00;;;11.50;98.20;;;;;;5302825;26;20256;-79
2024/04/15 07:21:12;;;;;;;1.50;1.10;;;11.50;98.20;;;;;;5290708;26;20605;-79
2024/04/15 07:23:38;;;;;;;1.50;1.00;;;11.60;98.20;;;;;;5299935;26;20468;-78
2024/04/15 07:26:09;;;;;;;1.50;1.17;;;11.60;98.20;;;;;;5289624;26;20499;-78
2024/04/15 07:28:35;;;;;;;1.50;1.00;;;11.70;98.20;;;;;;5298445;26;20229;-80
2024/04/15 07:31:05;;;;;;;1.50;1.00;;;11.80;98.20;;;;;;5290558;26;20648;-78
2024/04/15 07:33:30;;;;;;;1.50;1.00;;;11.90;98.20;;;;;;5302051;26;20319;-79
2024/04/15 07:36:00;;;;;;;1.50;1.13;;;11.90;98.20;;;;;;5288659;26;20533;-79
2024/04/15 07:38:26;;;;;;;1.50;1.10;;;11.80;98.20;;;;;;5301462;26;20311;-79
2024/04/15 07:40:55;;;;;;;1.50;1.00;;;11.70;98.20;;;;;;5290024;26;20555;-78
2024/04/15 07:43:24;;;;;;;1.50;1.03;;;11.80;98.20;;;;;;5306982;26;20626;-79
2024/04/15 07:45:52;;;;;;;1.50;1.00;;;12.10;98.20;;;;;;5291218;26;20472;-80
2024/04/15 07:48:18;;;;;;;1.50;1.00;;;12.50;98.20;;;;;;5308806;26;20539;-80
2024/04/15 07:50:46;;;;;;;1.50;1.00;;;12.70;98.20;;;;;;5299282;26;21405;-80
2024/04/15 07:53:12;;;;;;;1.50;1.00;;;12.90;98.20;;;;;;5293990;26;20283;-81
2024/04/15 07:55:45;;;;;;;1.50;1.00;;;13.00;98.20;;;;;;5300501;26;20487;-80
2024/04/15 07:58:11;;;;;;;1.50;1.10;;;13.20;98.20;;;;;;5265100;26;20296;-80
2024/04/15 08:00:43;;;;;;;1.50;1.00;;;13.20;98.20;;;;;;5310090;26;21078;-79
2024/04/15 08:03:09;;;;;;;1.50;1.00;;;13.20;98.20;;;;;;5297159;26;20260;-80
2024/04/15 08:05:38;;;;;;;1.50;1.00;;;13.10;98.20;;;;;;5301332;26;20526;-78
2024/04/15 08:08:05;;;;;;;1.50;1.00;;;13.30;98.20;;;;;;5291634;26;20271;-79
2024/04/15 08:10:34;;;;;;;1.50;1.00;;;13.50;98.20;;;;;;5304199;26;20539;-78
2024/04/15 08:13:00;;;;;;;1.50;1.00;;;13.70;98.20;;;;;;5297659;26;20928;-79
2024/04/15 08:15:30;;;;;;;1.50;1.00;;;14.00;98.20;;;;;;5300248;26;20476;-81
2024/04/15 08:17:59;;;;;;;1.50;1.00;;;14.10;98.20;;;;;;5293507;26;20260;-79
2024/04/15 08:20:28;;;;;;;1.50;1.10;;;14.10;98.20;;;;;;5300804;26;20523;-80
2024/04/15 08:22:54;;;;;;;1.50;1.00;;;14.00;98.20;;;;;;5295659;26;20499;-79
2024/04/15 08:25:22;;;;;;;1.50;0.90;;;14.10;98.20;;;;;;5300828;26;20472;-79
2024/04/15 08:27:48;;;;;;;1.50;1.00;;;14.40;98.20;;;;;;5295335;26;20323;-79
2024/04/15 08:30:17;;;;;;;1.50;1.00;;;14.60;98.20;;;;;;5301415;26;20475;-80
2024/04/15 08:32:42;;;;;;;1.50;1.00;;;14.70;98.20;;;;;;5299934;26;20741;-79
2024/04/15 08:35:14;;;;;;;1.50;1.00;;;14.80;98.20;;;;;;5300745;26;20483;-78
2024/04/15 08:37:39;;;;;;;1.50;0.90;;;14.70;98.20;;;;;;5286415;26;20412;-80
2024/04/15 08:40:09;;;;;;;1.43;1.00;;;14.50;98.20;;;;;;5301931;26;20575;-80
2024/04/15 08:42:47;;;;;;;1.47;1.00;;;14.40;98.20;;;;;;5300260;26;20299;-80
2024/04/15 08:45:20;;;;;;;1.50;0.90;;;14.30;98.20;;;;;;5302119;26;21140;-79
2024/04/15 08:47:50;;;;;;;1.50;1.00;;;14.30;98.20;;;;;;5303720;26;21264;-79
2024/04/15 08:50:25;;;;;;;1.40;0.90;;;14.40;98.20;;;;;;5301864;26;20560;-78
2024/04/15 08:52:55;;;;;;;1.50;0.90;;;14.30;98.20;;;;;;5287764;26;20620;-79
2024/04/15 08:55:26;;;;;;;1.47;1.00;;;14.30;98.20;;;;;;5297234;26;20571;-79
2024/04/15 08:57:56;;;;;;;1.50;1.00;;;14.40;98.20;;;;;;5291356;26;20559;-80
2024/04/15 09:00:26;;;;;;;1.50;1.00;;;14.40;98.20;;;;;;5299852;26;20484;-80
2024/04/15 09:03:09;;;;;;;1.43;0.90;;;14.50;97.90;;;;;;5302226;26;20992;-79
2024/04/15 09:05:41;;;;;;;1.43;0.97;;;14.50;97.10;;;;;;5299323;26;21033;-79
2024/04/15 09:08:08;;;;;;;1.50;1.00;;;14.60;97.50;;;;;;5306575;26;20503;-80
2024/04/15 09:10:37;;;;;;;1.47;0.93;;;14.70;97.90;;;;;;5302034;26;20599;-80
2024/04/15 09:13:03;;;;;;;1.50;1.00;;;14.80;97.30;;;;;;5299321;26;20641;-80
2024/04/15 09:15:32;;;;;;;1.50;0.90;;;14.90;97.80;;;;;;5301244;26;20527;-80
2024/04/15 09:17:58;;;;;;;1.50;1.00;;;14.90;97.20;;;;;;5299640;26;20502;-80
2024/04/15 09:20:29;;;;;;;1.50;1.00;;;14.90;96.50;;;;;;5301326;26;20475;-79
2024/04/15 09:23:03;;;;;;;1.47;1.00;;;14.90;97.20;;;;;;5297323;26;20558;-79
2024/04/15 09:25:32;;;;;;;1.43;0.90;;;14.90;95.50;;;;;;5300175;26;20467;-79
2024/04/15 09:27:58;;;;;;;1.50;1.00;;;14.80;94.90;;;;;;5286882;26;20522;-79
2024/04/15 09:30:29;;;;;;;1.50;1.00;;;14.90;95.80;;;;;;5298434;26;20475;-79
2024/04/15 09:32:56;;;;;;;1.43;0.97;;;15.00;96.90;;;;;;5295662;26;21029;-79
2024/04/15 09:35:25;;;;;;;1.40;0.90;;;15.10;96.10;;;;;;5299327;26;20927;-80
2024/04/15 09:37:51;;;;;;;1.40;0.90;;;15.10;93.70;;;;;;5295134;26;20961;-80
2024/04/15 09:40:25;;;;;;;1.60;1.43;;;15.00;94.00;;;;;;5300893;26;20475;-80
2024/04/15 09:42:51;;;;;;;1.50;0.97;;;15.00;94.30;;;;;;5284254;26;20488;-79
2024/04/15 09:45:21;;;;;;;1.43;0.90;;;15.10;94.80;;;;;;5300429;26;20587;-80
2024/04/15 09:47:50;;;;;;;1.47;0.90;;;15.10;93.80;;;;;;5289230;26;20542;-80
2024/04/15 09:50:22;;;;;;;1.50;0.90;;;15.10;94.50;;;;;;5299932;26;20591;-80
2024/04/15 09:52:56;;;;;;;1.43;0.90;;;15.10;93.50;;;;;;5300979;26;20491;-80
2024/04/15 09:55:33;;;;;;;1.50;1.00;;;15.10;93.90;;;;;;5300975;26;20556;-80
2024/04/15 09:58:02;;;;;;;1.50;1.00;;;15.10;94.30;;;;;;5293259;26;20556;-80
2024/04/15 10:00:32;;;;;;;1.50;1.00;;;15.10;94.20;;;;;;5302770;26;20545;-80
2024/04/15 10:03:07;;;;;;;1.47;1.00;;;15.10;94.80;;;;;;5286865;26;20532;-79
2024/04/15 10:05:41;;;;;;;1.47;1.00;;;15.10;94.50;;;;;;5299557;26;20490;-79
2024/04/15 10:08:08;;;;;;;1.43;0.90;;;15.20;94.90;;;;;;5287776;26;20495;-80
2024/04/15 10:10:41;;;;;;;1.50;1.00;;;15.20;94.50;;;;;;5297883;26;20487;-80
2024/04/15 10:13:10;;;;;;;1.50;1.00;;;15.20;94.00;;;;;;5292782;26;20550;-79
2024/04/15 10:15:38;;;;;;;1.50;0.90;;;15.20;94.60;;;;;;5298983;26;20868;-80
2024/04/15 10:18:10;;;;;;;1.50;0.90;;;15.30;94.60;;;;;;5289278;26;20620;-79
2024/04/15 10:20:42;;;;;;;1.43;0.90;;;15.30;93.80;;;;;;5300003;26;20487;-80
2024/04/15 10:23:10;;;;;;;1.47;0.90;;;15.40;93.90;;;;;;5293772;26;20526;-78
2024/04/15 10:25:41;;;;;;;1.50;1.00;;;15.40;92.40;;;;;;5297447;26;20573;-79
2024/04/15 10:28:08;;;;;;;1.50;1.00;;;15.40;89.90;;;;;;5287607;26;21126;-79
2024/04/15 10:30:40;;;;;;;1.50;0.90;;;15.50;90.60;;;;;;5298933;26;20513;-80
2024/04/15 10:33:08;;;;;;;1.40;0.90;;;15.60;91.60;;;;;;5295047;26;20507;-80
2024/04/15 10:35:38;;;;;;;1.50;0.90;;;15.70;89.10;;;;;;5293626;26;20481;-78
2024/04/15 10:38:05;;;;;;;1.47;0.90;;;15.70;87.50;;;;;;5295946;26;20495;-80
2024/04/15 10:40:36;;;;;;;1.50;0.90;;;15.60;87.40;;;;;;5299420;26;20487;-79
2024/04/15 10:43:05;;;;;;;1.47;0.97;;;15.40;88.00;;;;;;5291032;26;20548;-79
2024/04/15 10:45:34;;;;;;;1.43;0.90;;;15.40;89.60;;;;;;5299121;26;20573;-79
2024/04/15 10:48:00;;;;;;;1.47;0.90;;;15.30;89.00;;;;;;5292574;26;20495;-79
2024/04/15 10:50:32;;;;;;;1.50;0.90;;;15.30;89.80;;;;;;5296736;26;20618;-78
2024/04/15 10:52:58;;;;;;;1.50;1.00;;;15.20;88.60;;;;;;5298860;26;20510;-79
2024/04/15 10:55:27;;;;;;;1.47;0.90;;;15.20;88.00;;;;;;5298003;26;20598;-77
2024/04/15 10:57:53;;;;;;;1.50;0.90;;;15.30;89.50;;;;;;5288456;26;20371;-78
2024/04/15 11:00:25;;;;;;;1.47;1.00;;;15.30;89.40;;;;;;5294247;26;20529;-79
2024/04/15 11:02:52;;;;;;;1.43;0.90;;;15.40;90.30;;;;;;5292133;26;21741;-79
2024/04/15 11:05:22;;;;;;;1.50;0.90;;;15.50;89.00;;;;;;5291718;26;20540;-80
2024/04/15 11:07:51;;;;;;;1.43;0.90;;;15.60;89.80;;;;;;5295215;26;20507;-80
2024/04/15 11:10:19;;;;;;;1.50;1.00;;;15.80;89.10;;;;;;5299706;26;20475;-78
2024/04/15 11:12:51;;;;;;;1.47;0.90;;;15.90;87.30;;;;;;5292998;26;21017;-78
2024/04/15 11:15:21;;;;;;;1.50;1.00;;;15.80;88.20;;;;;;5304159;26;20532;-79
2024/04/15 11:17:51;;;;;;;1.47;0.90;;;16.10;88.80;;;;;;5300724;26;20835;-80
2024/04/15 11:20:20;;;;;;;1.50;0.90;;;16.40;86.50;;;;;;5306901;26;20492;-80
2024/04/15 11:22:46;;;;;;;1.50;1.00;;;16.50;83.60;;;;;;5301713;26;20578;-79
2024/04/15 11:25:15;;;;;;;1.43;1.00;;;16.50;84.70;;;;;;5303293;26;20622;-79
2024/04/15 11:27:45;;;;;;;1.47;0.90;;;16.60;83.20;;;;;;5296020;26;20287;-79
2024/04/15 11:30:18;;;;;;;1.50;1.17;;;16.80;84.40;;;;;;5300521;26;20480;-79
2024/04/15 11:32:44;;;;;;;1.47;0.90;;;16.80;82.80;;;;;;5283556;26;21045;-79
2024/04/15 11:35:15;;;;;;;1.50;1.00;;;16.80;82.50;;;;;;5298573;26;20527;-78
2024/04/15 11:37:42;;;;;;;1.47;0.90;;;16.90;82.60;;;;;;5295493;26;20488;-79
2024/04/15 11:40:14;;;;;;;1.50;0.90;;;17.00;83.10;;;;;;5300050;26;20467;-79
2024/04/15 11:42:41;;;;;;;1.50;1.00;;;17.00;81.80;;;;;;5284896;26;20618;-78
2024/04/15 11:45:10;;;;;;;1.47;0.90;;;17.10;82.20;;;;;;5297528;26;20484;-80
2024/04/15 11:47:36;;;;;;;1.50;0.90;;;17.00;82.00;;;;;;5294136;26;20501;-80
2024/04/15 11:50:05;;;;;;;1.50;0.90;;;17.00;82.20;;;;;;5301469;26;20613;-79
2024/04/15 11:52:35;;;;;;;1.47;0.90;;;17.00;81.50;;;;;;5287276;26;20272;-79
2024/04/15 11:55:03;;;;;;;1.50;0.93;;;17.00;82.70;;;;;;5298044;26;20539;-78
2024/04/15 11:57:29;;;;;;;1.50;0.90;;;17.00;80.50;;;;;;5293804;26;20589;-78
2024/04/15 12:00:00;;;;;;;1.43;0.90;;;17.00;80.20;;;;;;5297050;26;20479;-79
2024/04/15 12:02:26;;;;;;;1.50;1.00;;;16.80;79.10;;;;;;5301548;26;20501;-79
2024/04/15 12:04:55;;;;;;;1.47;0.90;;;16.70;80.20;;;;;;5295875;26;20907;-77
2024/04/15 12:07:22;;;;;;;1.50;0.90;;;16.60;78.60;;;;;;5292869;26;20311;-79
2024/04/15 12:09:54;;;;;;;1.50;0.90;;;16.50;79.80;;;;;;5297413;26;21117;-78
2024/04/15 12:12:20;;;;;;;1.50;0.90;;;16.50;80.70;;;;;;5293671;26;20853;-79
2024/04/15 12:14:48;;;;;;;1.40;0.90;;;16.40;80.20;;;;;;5291456;26;20491;-79
2024/04/15 12:17:15;;;;;;;1.50;1.00;;;16.40;81.50;;;;;;5297596;26;20812;-80
2024/04/15 12:19:43;;;;;;;1.47;0.90;;;16.50;81.50;;;;;;5296864;26;21494;-79
2024/04/15 12:22:12;;;;;;;1.43;0.90;;;16.50;81.20;;;;;;5289302;26;20564;-78
2024/04/15 12:24:40;;;;;;;1.47;1.00;;;16.30;80.80;;;;;;5300319;26;20527;-78
2024/04/15 12:27:09;;;;;;;1.43;0.90;;;16.10;80.40;;;;;;5292333;26;21085;-79
2024/04/15 12:29:37;;;;;;;1.40;0.90;;;16.10;81.10;;;;;;5297071;26;20518;-79
2024/04/15 12:32:06;;;;;;;1.47;0.90;;;16.00;81.30;;;;;;5284505;26;20916;-78
2024/04/15 12:34:35;;;;;;;1.47;0.90;;;15.90;81.50;;;;;;5298563;26;20600;-79
2024/04/15 12:37:01;;;;;;;1.47;1.00;;;15.70;82.60;;;;;;5300379;26;20499;-79
2024/04/15 12:39:29;;;;;;;1.47;1.00;;;15.50;83.80;;;;;;5300311;26;20547;-78
2024/04/15 12:41:55;;;;;;;1.60;1.43;;;15.30;85.30;;;;;;5288663;26;20838;-78
2024/04/15 12:44:29;;;;;;;1.50;1.00;;;15.00;87.70;;;;;;5301897;26;20471;-78
2024/04/15 12:46:54;;;;;;;1.50;0.90;;;14.90;89.10;;;;;;5288624;26;21053;-80
2024/04/15 12:49:23;;;;;;;1.50;0.90;;;14.80;90.40;;;;;;5303714;26;20532;-80
2024/04/15 12:51:49;;;;;;;1.47;0.90;;;14.80;89.20;;;;;;5284030;26;20762;-80
2024/04/15 12:54:18;;;;;;;1.50;1.00;;;14.90;90.60;;;;;;5304396;26;20464;-78